sensor_id;sensor_type;location;lat;lon;timestamp;P1;durP1;ratioP1;P2;durP2;ratioP2
75634;SDS011;64227;48.724;9.104;2023-05-02T00:01:12;3.10;;;2.50;;
75634;SDS011;64227;48.724;9.104;2023-05-02T00:03:38;2.53;;;2.15;;
75634;SDS011;64227;48.724;9.104;2023-05-02T00:06:03;2.95;;;2.50;;
75634;SDS011;64227;48.724;9.104;2023-05-02T00:08:28;2.90;;;2.50;;
75634;SDS011;64227;48.724;9.104;2023-05-02T00:10:54;2.88;;;2.20;;
75634;SDS011;64227;48.724;9.104;2023-05-02T00:13:19;2.33;;;2.03;;
75634;SDS011;64227;48.724;9.104;2023-05-02T00:15:45;2.88;;;2.00;;
75634;SDS011;64227;48.724;9.104;2023-05-02T00:18:10;2.53;;;1.85;;
75634;SDS011;64227;48.724;9.104;2023-05-02T00:20:35;3.95;;;2.15;;
75634;SDS011;64227;48.724;9.104;2023-05-02T00:23:01;2.13;;;1.73;;
75634;SDS011;64227;48.724;9.104;2023-05-02T00:25:26;2.38;;;2.13;;
75634;SDS011;64227;48.724;9.104;2023-05-02T00:27:51;4.45;;;2.17;;
75634;SDS011;64227;48.724;9.104;2023-05-02T00:30:17;3.47;;;2.22;;
75634;SDS011;64227;48.724;9.104;2023-05-02T00:32:42;3.05;;;2.47;;
75634;SDS011;64227;48.724;9.104;2023-05-02T00:35:08;2.55;;;2.20;;
75634;SDS011;64227;48.724;9.104;2023-05-02T00:37:34;2.25;;;1.73;;
75634;SDS011;64227;48.724;9.104;2023-05-02T00:40:00;2.70;;;2.05;;
75634;SDS011;64227;48.724;9.104;2023-05-02T00:42:25;2.90;;;2.30;;
75634;SDS011;64227;48.724;9.104;2023-05-02T00:44:53;3.85;;;2.38;;
75634;SDS011;64227;48.724;9.104;2023-05-02T00:47:18;3.22;;;2.40;;
75634;SDS011;64227;48.724;9.104;2023-05-02T00:49:43;2.40;;;2.20;;
75634;SDS011;64227;48.724;9.104;2023-05-02T00:52:09;2.80;;;2.38;;
75634;SDS011;64227;48.724;9.104;2023-05-02T00:54:35;4.30;;;3.45;;
75634;SDS011;64227;48.724;9.104;2023-05-02T00:57:02;4.72;;;3.67;;
75634;SDS011;64227;48.724;9.104;2023-05-02T00:59:27;5.03;;;4.07;;
75634;SDS011;64227;48.724;9.104;2023-05-02T01:02:00;4.97;;;4.22;;
75634;SDS011;64227;48.724;9.104;2023-05-02T01:07:23;5.03;;;3.83;;
75634;SDS011;64227;48.724;9.104;2023-05-02T01:12:47;5.78;;;4.82;;
75634;SDS011;64227;48.724;9.104;2023-05-02T01:15:18;6.85;;;5.05;;
75634;SDS011;64227;48.724;9.104;2023-05-02T01:17:44;5.82;;;4.43;;
75634;SDS011;64227;48.724;9.104;2023-05-02T01:20:12;5.25;;;4.00;;
75634;SDS011;64227;48.724;9.104;2023-05-02T01:22:42;4.88;;;3.83;;
75634;SDS011;64227;48.724;9.104;2023-05-02T01:31:02;7.35;;;4.63;;
75634;SDS011;64227;48.724;9.104;2023-05-02T01:33:28;6.93;;;5.15;;
75634;SDS011;64227;48.724;9.104;2023-05-02T01:35:54;5.90;;;4.90;;
75634;SDS011;64227;48.724;9.104;2023-05-02T01:38:20;6.32;;;4.15;;
75634;SDS011;64227;48.724;9.104;2023-05-02T01:40:46;4.85;;;3.90;;
75634;SDS011;64227;48.724;9.104;2023-05-02T01:43:12;5.03;;;3.75;;
75634;SDS011;64227;48.724;9.104;2023-05-02T01:45:38;4.38;;;3.60;;
75634;SDS011;64227;48.724;9.104;2023-05-02T01:48:05;5.25;;;3.97;;
75634;SDS011;64227;48.724;9.104;2023-05-02T01:50:31;4.50;;;3.35;;
75634;SDS011;64227;48.724;9.104;2023-05-02T01:52:58;4.82;;;3.28;;
75634;SDS011;64227;48.724;9.104;2023-05-02T01:55:25;4.88;;;3.40;;
75634;SDS011;64227;48.724;9.104;2023-05-02T01:57:50;4.97;;;3.85;;
75634;SDS011;64227;48.724;9.104;2023-05-02T02:00:18;4.15;;;3.10;;
75634;SDS011;64227;48.724;9.104;2023-05-02T02:02:45;3.42;;;2.25;;
75634;SDS011;64227;48.724;9.104;2023-05-02T02:05:11;4.03;;;2.90;;
75634;SDS011;64227;48.724;9.104;2023-05-02T02:07:36;4.15;;;2.90;;
75634;SDS011;64227;48.724;9.104;2023-05-02T02:10:02;3.75;;;2.97;;
75634;SDS011;64227;48.724;9.104;2023-05-02T02:12:30;3.03;;;2.63;;
75634;SDS011;64227;48.724;9.104;2023-05-02T02:15:05;3.67;;;2.50;;
75634;SDS011;64227;48.724;9.104;2023-05-02T02:20:25;3.85;;;3.00;;
75634;SDS011;64227;48.724;9.104;2023-05-02T02:22:52;4.50;;;3.63;;
75634;SDS011;64227;48.724;9.104;2023-05-02T02:25:18;3.97;;;2.78;;
75634;SDS011;64227;48.724;9.104;2023-05-02T02:27:44;4.18;;;3.25;;
75634;SDS011;64227;48.724;9.104;2023-05-02T02:30:09;4.85;;;3.78;;
75634;SDS011;64227;48.724;9.104;2023-05-02T02:32:36;5.10;;;3.58;;
75634;SDS011;64227;48.724;9.104;2023-05-02T02:35:01;4.10;;;3.50;;
75634;SDS011;64227;48.724;9.104;2023-05-02T02:37:31;4.13;;;3.05;;
75634;SDS011;64227;48.724;9.104;2023-05-02T02:40:16;5.05;;;3.58;;
75634;SDS011;64227;48.724;9.104;2023-05-02T02:45:33;5.25;;;3.60;;
75634;SDS011;64227;48.724;9.104;2023-05-02T02:51:09;5.72;;;3.72;;
75634;SDS011;64227;48.724;9.104;2023-05-02T02:56:14;5.18;;;4.05;;
75634;SDS011;64227;48.724;9.104;2023-05-02T03:01:20;5.65;;;3.97;;
75634;SDS011;64227;48.724;9.104;2023-05-02T03:03:47;5.90;;;4.43;;
75634;SDS011;64227;48.724;9.104;2023-05-02T03:06:12;5.18;;;3.60;;
75634;SDS011;64227;48.724;9.104;2023-05-02T03:08:38;4.13;;;3.70;;
75634;SDS011;64227;48.724;9.104;2023-05-02T03:11:05;7.05;;;4.68;;
75634;SDS011;64227;48.724;9.104;2023-05-02T03:13:30;6.82;;;4.18;;
75634;SDS011;64227;48.724;9.104;2023-05-02T03:16:11;6.47;;;4.55;;
75634;SDS011;64227;48.724;9.104;2023-05-02T03:18:59;6.88;;;4.32;;
75634;SDS011;64227;48.724;9.104;2023-05-02T03:21:24;6.60;;;4.82;;
75634;SDS011;64227;48.724;9.104;2023-05-02T03:23:50;6.55;;;4.80;;
75634;SDS011;64227;48.724;9.104;2023-05-02T03:26:15;4.95;;;4.30;;
75634;SDS011;64227;48.724;9.104;2023-05-02T03:28:41;6.20;;;4.93;;
75634;SDS011;64227;48.724;9.104;2023-05-02T03:31:06;5.88;;;4.78;;
75634;SDS011;64227;48.724;9.104;2023-05-02T03:33:31;6.03;;;4.18;;
75634;SDS011;64227;48.724;9.104;2023-05-02T03:35:57;5.68;;;4.30;;
75634;SDS011;64227;48.724;9.104;2023-05-02T03:38:22;5.78;;;4.68;;
75634;SDS011;64227;48.724;9.104;2023-05-02T03:40:47;6.75;;;4.63;;
75634;SDS011;64227;48.724;9.104;2023-05-02T03:43:13;6.10;;;4.68;;
75634;SDS011;64227;48.724;9.104;2023-05-02T03:45:38;5.80;;;4.68;;
75634;SDS011;64227;48.724;9.104;2023-05-02T03:48:03;5.03;;;4.43;;
75634;SDS011;64227;48.724;9.104;2023-05-02T03:50:29;4.90;;;4.07;;
75634;SDS011;64227;48.724;9.104;2023-05-02T03:52:54;5.20;;;4.30;;
75634;SDS011;64227;48.724;9.104;2023-05-02T03:55:20;5.40;;;4.45;;
75634;SDS011;64227;48.724;9.104;2023-05-02T03:57:45;6.15;;;4.47;;
75634;SDS011;64227;48.724;9.104;2023-05-02T04:00:11;5.78;;;4.90;;
75634;SDS011;64227;48.724;9.104;2023-05-02T04:02:36;7.10;;;4.78;;
75634;SDS011;64227;48.724;9.104;2023-05-02T04:05:02;7.22;;;5.35;;
75634;SDS011;64227;48.724;9.104;2023-05-02T04:07:27;6.32;;;4.65;;
75634;SDS011;64227;48.724;9.104;2023-05-02T04:09:53;5.22;;;4.20;;
75634;SDS011;64227;48.724;9.104;2023-05-02T04:12:18;5.43;;;4.07;;
75634;SDS011;64227;48.724;9.104;2023-05-02T04:14:44;5.93;;;4.20;;
75634;SDS011;64227;48.724;9.104;2023-05-02T04:17:09;5.90;;;4.70;;
75634;SDS011;64227;48.724;9.104;2023-05-02T04:19:34;6.78;;;4.78;;
75634;SDS011;64227;48.724;9.104;2023-05-02T04:22:00;4.63;;;4.13;;
75634;SDS011;64227;48.724;9.104;2023-05-02T04:24:26;4.97;;;3.83;;
75634;SDS011;64227;48.724;9.104;2023-05-02T04:26:52;6.10;;;4.55;;
75634;SDS011;64227;48.724;9.104;2023-05-02T04:29:17;5.22;;;3.65;;
75634;SDS011;64227;48.724;9.104;2023-05-02T04:31:42;6.97;;;4.18;;
75634;SDS011;64227;48.724;9.104;2023-05-02T04:34:08;5.35;;;3.80;;
75634;SDS011;64227;48.724;9.104;2023-05-02T04:36:33;6.25;;;4.10;;
75634;SDS011;64227;48.724;9.104;2023-05-02T04:38:59;5.32;;;3.90;;
75634;SDS011;64227;48.724;9.104;2023-05-02T04:41:24;5.60;;;4.22;;
75634;SDS011;64227;48.724;9.104;2023-05-02T04:43:50;6.05;;;4.07;;
75634;SDS011;64227;48.724;9.104;2023-05-02T04:46:16;4.10;;;3.53;;
75634;SDS011;64227;48.724;9.104;2023-05-02T04:48:42;6.68;;;4.55;;
75634;SDS011;64227;48.724;9.104;2023-05-02T04:51:08;5.35;;;4.03;;
75634;SDS011;64227;48.724;9.104;2023-05-02T04:53:34;5.32;;;4.10;;
75634;SDS011;64227;48.724;9.104;2023-05-02T04:55:59;3.95;;;3.38;;
75634;SDS011;64227;48.724;9.104;2023-05-02T04:58:24;5.00;;;3.17;;
75634;SDS011;64227;48.724;9.104;2023-05-02T05:00:50;4.10;;;3.45;;
75634;SDS011;64227;48.724;9.104;2023-05-02T05:03:15;5.60;;;4.22;;
75634;SDS011;64227;48.724;9.104;2023-05-02T05:05:41;6.00;;;4.53;;
75634;SDS011;64227;48.724;9.104;2023-05-02T05:08:06;6.18;;;3.97;;
75634;SDS011;64227;48.724;9.104;2023-05-02T05:10:32;5.68;;;4.30;;
75634;SDS011;64227;48.724;9.104;2023-05-02T05:12:57;6.43;;;4.78;;
75634;SDS011;64227;48.724;9.104;2023-05-02T05:15:22;5.05;;;4.18;;
75634;SDS011;64227;48.724;9.104;2023-05-02T05:17:49;4.07;;;3.28;;
75634;SDS011;64227;48.724;9.104;2023-05-02T05:20:15;3.63;;;2.97;;
75634;SDS011;64227;48.724;9.104;2023-05-02T05:22:41;4.70;;;3.65;;
75634;SDS011;64227;48.724;9.104;2023-05-02T05:25:07;5.50;;;4.20;;
75634;SDS011;64227;48.724;9.104;2023-05-02T05:27:33;4.82;;;4.20;;
75634;SDS011;64227;48.724;9.104;2023-05-02T05:29:59;5.68;;;4.95;;
75634;SDS011;64227;48.724;9.104;2023-05-02T05:32:24;6.47;;;5.35;;
75634;SDS011;64227;48.724;9.104;2023-05-02T05:34:53;8.50;;;5.55;;
75634;SDS011;64227;48.724;9.104;2023-05-02T05:37:18;7.97;;;5.85;;
75634;SDS011;64227;48.724;9.104;2023-05-02T05:39:44;6.72;;;5.22;;
75634;SDS011;64227;48.724;9.104;2023-05-02T05:42:09;7.43;;;5.55;;
75634;SDS011;64227;48.724;9.104;2023-05-02T05:44:35;5.88;;;5.28;;
75634;SDS011;64227;48.724;9.104;2023-05-02T05:47:00;6.38;;;5.18;;
75634;SDS011;64227;48.724;9.104;2023-05-02T05:49:26;8.18;;;5.63;;
75634;SDS011;64227;48.724;9.104;2023-05-02T05:51:51;7.28;;;5.38;;
75634;SDS011;64227;48.724;9.104;2023-05-02T05:54:17;8.02;;;5.82;;
75634;SDS011;64227;48.724;9.104;2023-05-02T05:56:42;7.35;;;5.22;;
75634;SDS011;64227;48.724;9.104;2023-05-02T05:59:08;7.35;;;5.88;;
75634;SDS011;64227;48.724;9.104;2023-05-02T06:01:33;10.90;;;6.63;;
75634;SDS011;64227;48.724;9.104;2023-05-02T06:03:59;7.35;;;5.40;;
75634;SDS011;64227;48.724;9.104;2023-05-02T06:06:25;8.07;;;5.80;;
75634;SDS011;64227;48.724;9.104;2023-05-02T06:08:52;8.07;;;6.05;;
75634;SDS011;64227;48.724;9.104;2023-05-02T06:11:17;6.40;;;5.28;;
75634;SDS011;64227;48.724;9.104;2023-05-02T06:13:42;7.57;;;5.80;;
75634;SDS011;64227;48.724;9.104;2023-05-02T06:16:07;8.00;;;5.37;;
75634;SDS011;64227;48.724;9.104;2023-05-02T06:18:33;11.27;;;7.05;;
75634;SDS011;64227;48.724;9.104;2023-05-02T06:21:02;7.93;;;6.90;;
75634;SDS011;64227;48.724;9.104;2023-05-02T06:23:28;7.55;;;5.85;;
75634;SDS011;64227;48.724;9.104;2023-05-02T06:25:53;8.65;;;6.72;;
75634;SDS011;64227;48.724;9.104;2023-05-02T06:28:19;11.00;;;7.15;;
75634;SDS011;64227;48.724;9.104;2023-05-02T06:30:44;8.30;;;6.45;;
75634;SDS011;64227;48.724;9.104;2023-05-02T06:33:10;9.40;;;7.30;;
75634;SDS011;64227;48.724;9.104;2023-05-02T06:35:36;10.57;;;7.97;;
75634;SDS011;64227;48.724;9.104;2023-05-02T06:38:01;11.45;;;8.30;;
75634;SDS011;64227;48.724;9.104;2023-05-02T06:40:26;9.52;;;8.10;;
75634;SDS011;64227;48.724;9.104;2023-05-02T06:42:52;11.25;;;7.85;;
75634;SDS011;64227;48.724;9.104;2023-05-02T06:45:17;9.88;;;7.55;;
75634;SDS011;64227;48.724;9.104;2023-05-02T06:47:42;12.82;;;9.52;;
75634;SDS011;64227;48.724;9.104;2023-05-02T06:50:08;11.02;;;7.88;;
75634;SDS011;64227;48.724;9.104;2023-05-02T06:52:34;11.40;;;8.85;;
75634;SDS011;64227;48.724;9.104;2023-05-02T06:55:09;13.13;;;9.88;;
75634;SDS011;64227;48.724;9.104;2023-05-02T06:57:43;11.38;;;9.10;;
75634;SDS011;64227;48.724;9.104;2023-05-02T07:00:08;12.65;;;9.50;;
75634;SDS011;64227;48.724;9.104;2023-05-02T07:02:34;13.35;;;9.90;;
75634;SDS011;64227;48.724;9.104;2023-05-02T07:05:00;13.13;;;10.15;;
75634;SDS011;64227;48.724;9.104;2023-05-02T07:07:25;13.32;;;10.05;;
75634;SDS011;64227;48.724;9.104;2023-05-02T07:09:50;13.88;;;10.77;;
75634;SDS011;64227;48.724;9.104;2023-05-02T07:12:16;14.70;;;10.15;;
75634;SDS011;64227;48.724;9.104;2023-05-02T07:14:41;14.05;;;10.05;;
75634;SDS011;64227;48.724;9.104;2023-05-02T07:17:07;13.15;;;9.90;;
75634;SDS011;64227;48.724;9.104;2023-05-02T07:19:32;12.73;;;8.80;;
75634;SDS011;64227;48.724;9.104;2023-05-02T07:21:57;14.13;;;10.07;;
75634;SDS011;64227;48.724;9.104;2023-05-02T07:24:23;14.50;;;10.63;;
75634;SDS011;64227;48.724;9.104;2023-05-02T07:26:48;14.63;;;10.82;;
75634;SDS011;64227;48.724;9.104;2023-05-02T07:29:13;14.73;;;10.45;;
75634;SDS011;64227;48.724;9.104;2023-05-02T07:31:39;14.20;;;11.13;;
75634;SDS011;64227;48.724;9.104;2023-05-02T07:34:04;14.35;;;10.82;;
75634;SDS011;64227;48.724;9.104;2023-05-02T07:36:30;15.75;;;11.23;;
75634;SDS011;64227;48.724;9.104;2023-05-02T07:38:56;16.35;;;11.07;;
75634;SDS011;64227;48.724;9.104;2023-05-02T07:41:22;17.08;;;11.98;;
75634;SDS011;64227;48.724;9.104;2023-05-02T07:43:47;15.75;;;12.88;;
75634;SDS011;64227;48.724;9.104;2023-05-02T07:46:12;18.05;;;12.82;;
75634;SDS011;64227;48.724;9.104;2023-05-02T07:48:37;18.25;;;13.55;;
75634;SDS011;64227;48.724;9.104;2023-05-02T07:51:07;15.13;;;11.27;;
75634;SDS011;64227;48.724;9.104;2023-05-02T07:53:35;13.98;;;10.52;;
75634;SDS011;64227;48.724;9.104;2023-05-02T07:56:04;15.65;;;11.00;;
75634;SDS011;64227;48.724;9.104;2023-05-02T07:58:30;16.92;;;10.85;;
75634;SDS011;64227;48.724;9.104;2023-05-02T08:00:56;14.68;;;11.27;;
75634;SDS011;64227;48.724;9.104;2023-05-02T08:03:21;16.50;;;12.13;;
75634;SDS011;64227;48.724;9.104;2023-05-02T08:05:46;20.33;;;13.23;;
75634;SDS011;64227;48.724;9.104;2023-05-02T08:08:12;14.02;;;10.13;;
75634;SDS011;64227;48.724;9.104;2023-05-02T08:10:37;13.80;;;10.63;;
75634;SDS011;64227;48.724;9.104;2023-05-02T08:13:02;12.38;;;10.05;;
75634;SDS011;64227;48.724;9.104;2023-05-02T08:15:28;14.65;;;11.27;;
75634;SDS011;64227;48.724;9.104;2023-05-02T08:17:54;17.45;;;13.32;;
75634;SDS011;64227;48.724;9.104;2023-05-02T08:20:19;15.20;;;11.00;;
75634;SDS011;64227;48.724;9.104;2023-05-02T08:22:46;18.05;;;12.43;;
75634;SDS011;64227;48.724;9.104;2023-05-02T08:25:11;17.58;;;13.35;;
75634;SDS011;64227;48.724;9.104;2023-05-02T08:27:36;21.10;;;14.18;;
75634;SDS011;64227;48.724;9.104;2023-05-02T08:30:02;20.45;;;14.32;;
75634;SDS011;64227;48.724;9.104;2023-05-02T08:32:27;20.10;;;14.93;;
75634;SDS011;64227;48.724;9.104;2023-05-02T08:34:54;22.38;;;15.23;;
75634;SDS011;64227;48.724;9.104;2023-05-02T08:37:20;15.27;;;11.15;;
75634;SDS011;64227;48.724;9.104;2023-05-02T08:39:46;14.38;;;10.15;;
75634;SDS011;64227;48.724;9.104;2023-05-02T08:42:11;13.10;;;10.68;;
75634;SDS011;64227;48.724;9.104;2023-05-02T08:44:36;17.17;;;12.07;;
75634;SDS011;64227;48.724;9.104;2023-05-02T08:47:02;19.13;;;13.23;;
75634;SDS011;64227;48.724;9.104;2023-05-02T08:49:28;19.50;;;12.40;;
75634;SDS011;64227;48.724;9.104;2023-05-02T08:51:55;12.88;;;10.63;;
75634;SDS011;64227;48.724;9.104;2023-05-02T08:54:22;16.80;;;11.98;;
75634;SDS011;64227;48.724;9.104;2023-05-02T08:56:49;16.67;;;11.75;;
75634;SDS011;64227;48.724;9.104;2023-05-02T08:59:15;14.15;;;10.93;;
75634;SDS011;64227;48.724;9.104;2023-05-02T09:01:41;15.68;;;10.18;;
75634;SDS011;64227;48.724;9.104;2023-05-02T09:04:07;11.55;;;9.32;;
75634;SDS011;64227;48.724;9.104;2023-05-02T09:06:33;14.32;;;11.27;;
75634;SDS011;64227;48.724;9.104;2023-05-02T09:09:00;11.88;;;9.73;;
75634;SDS011;64227;48.724;9.104;2023-05-02T09:11:25;16.13;;;11.55;;
75634;SDS011;64227;48.724;9.104;2023-05-02T09:13:51;13.07;;;9.55;;
75634;SDS011;64227;48.724;9.104;2023-05-02T09:16:20;12.80;;;10.52;;
75634;SDS011;64227;48.724;9.104;2023-05-02T09:18:47;9.68;;;7.07;;
75634;SDS011;64227;48.724;9.104;2023-05-02T09:21:15;11.88;;;9.18;;
75634;SDS011;64227;48.724;9.104;2023-05-02T09:23:44;10.68;;;8.40;;
75634;SDS011;64227;48.724;9.104;2023-05-02T09:26:10;11.10;;;9.20;;
75634;SDS011;64227;48.724;9.104;2023-05-02T09:28:41;11.65;;;9.65;;
75634;SDS011;64227;48.724;9.104;2023-05-02T09:31:09;15.40;;;11.65;;
75634;SDS011;64227;48.724;9.104;2023-05-02T09:33:36;13.15;;;9.20;;
75634;SDS011;64227;48.724;9.104;2023-05-02T09:36:02;8.18;;;6.75;;
75634;SDS011;64227;48.724;9.104;2023-05-02T09:38:28;11.63;;;7.85;;
75634;SDS011;64227;48.724;9.104;2023-05-02T09:40:54;8.85;;;7.32;;
75634;SDS011;64227;48.724;9.104;2023-05-02T09:43:20;12.85;;;9.70;;
75634;SDS011;64227;48.724;9.104;2023-05-02T09:45:55;9.32;;;7.80;;
75634;SDS011;64227;48.724;9.104;2023-05-02T09:48:21;14.32;;;10.85;;
75634;SDS011;64227;48.724;9.104;2023-05-02T09:50:46;9.52;;;8.32;;
75634;SDS011;64227;48.724;9.104;2023-05-02T09:53:12;10.20;;;8.30;;
75634;SDS011;64227;48.724;9.104;2023-05-02T09:55:37;9.55;;;8.07;;
75634;SDS011;64227;48.724;9.104;2023-05-02T09:58:05;9.10;;;7.10;;
75634;SDS011;64227;48.724;9.104;2023-05-02T10:00:41;9.15;;;8.23;;
75634;SDS011;64227;48.724;9.104;2023-05-02T10:03:07;8.70;;;7.13;;
75634;SDS011;64227;48.724;9.104;2023-05-02T10:05:35;10.10;;;9.02;;
75634;SDS011;64227;48.724;9.104;2023-05-02T10:08:02;11.85;;;8.88;;
75634;SDS011;64227;48.724;9.104;2023-05-02T10:10:29;8.23;;;6.97;;
75634;SDS011;64227;48.724;9.104;2023-05-02T10:12:55;11.30;;;8.73;;
75634;SDS011;64227;48.724;9.104;2023-05-02T10:15:22;11.45;;;9.65;;
75634;SDS011;64227;48.724;9.104;2023-05-02T10:17:55;12.23;;;10.82;;
75634;SDS011;64227;48.724;9.104;2023-05-02T10:20:24;15.88;;;10.70;;
75634;SDS011;64227;48.724;9.104;2023-05-02T10:22:55;12.52;;;9.93;;
75634;SDS011;64227;48.724;9.104;2023-05-02T10:25:23;11.10;;;9.50;;
75634;SDS011;64227;48.724;9.104;2023-05-02T10:27:48;8.10;;;7.05;;
75634;SDS011;64227;48.724;9.104;2023-05-02T10:30:14;9.82;;;8.15;;
75634;SDS011;64227;48.724;9.104;2023-05-02T10:32:40;9.43;;;6.30;;
75634;SDS011;64227;48.724;9.104;2023-05-02T10:35:06;6.10;;;5.53;;
75634;SDS011;64227;48.724;9.104;2023-05-02T10:37:32;7.63;;;6.80;;
75634;SDS011;64227;48.724;9.104;2023-05-02T10:39:58;6.60;;;5.57;;
75634;SDS011;64227;48.724;9.104;2023-05-02T10:42:24;4.70;;;4.18;;
75634;SDS011;64227;48.724;9.104;2023-05-02T10:44:50;6.30;;;4.97;;
75634;SDS011;64227;48.724;9.104;2023-05-02T10:47:22;8.15;;;6.80;;
75634;SDS011;64227;48.724;9.104;2023-05-02T10:49:52;4.72;;;4.32;;
75634;SDS011;64227;48.724;9.104;2023-05-02T10:52:25;7.85;;;6.55;;
75634;SDS011;64227;48.724;9.104;2023-05-02T10:55:16;8.98;;;7.45;;
75634;SDS011;64227;48.724;9.104;2023-05-02T11:00:24;6.38;;;4.57;;
75634;SDS011;64227;48.724;9.104;2023-05-02T11:02:51;5.75;;;5.22;;
75634;SDS011;64227;48.724;9.104;2023-05-02T11:05:16;5.53;;;4.88;;
75634;SDS011;64227;48.724;9.104;2023-05-02T11:07:42;6.07;;;5.00;;
75634;SDS011;64227;48.724;9.104;2023-05-02T11:12:48;5.55;;;4.43;;
75634;SDS011;64227;48.724;9.104;2023-05-02T11:18:07;8.07;;;6.30;;
75634;SDS011;64227;48.724;9.104;2023-05-02T11:20:35;8.55;;;6.57;;
75634;SDS011;64227;48.724;9.104;2023-05-02T11:25:42;7.57;;;5.90;;
75634;SDS011;64227;48.724;9.104;2023-05-02T11:31:03;7.88;;;6.55;;
75634;SDS011;64227;48.724;9.104;2023-05-02T11:33:29;10.23;;;9.18;;
75634;SDS011;64227;48.724;9.104;2023-05-02T11:35:55;7.55;;;5.40;;
75634;SDS011;64227;48.724;9.104;2023-05-02T11:38:23;7.75;;;5.95;;
75634;SDS011;64227;48.724;9.104;2023-05-02T11:40:54;5.95;;;5.35;;
75634;SDS011;64227;48.724;9.104;2023-05-02T11:43:21;8.00;;;7.20;;
75634;SDS011;64227;48.724;9.104;2023-05-02T11:45:48;6.40;;;5.75;;
75634;SDS011;64227;48.724;9.104;2023-05-02T11:48:17;7.10;;;5.95;;
75634;SDS011;64227;48.724;9.104;2023-05-02T11:50:47;6.15;;;5.55;;
75634;SDS011;64227;48.724;9.104;2023-05-02T11:53:16;8.55;;;7.75;;
75634;SDS011;64227;48.724;9.104;2023-05-02T11:55:50;10.10;;;7.07;;
75634;SDS011;64227;48.724;9.104;2023-05-02T11:58:26;7.47;;;6.53;;
75634;SDS011;64227;48.724;9.104;2023-05-02T12:03:29;8.07;;;7.28;;
75634;SDS011;64227;48.724;9.104;2023-05-02T12:05:57;9.88;;;7.57;;
75634;SDS011;64227;48.724;9.104;2023-05-02T12:08:33;9.25;;;7.45;;
75634;SDS011;64227;48.724;9.104;2023-05-02T12:10:59;7.95;;;7.15;;
75634;SDS011;64227;48.724;9.104;2023-05-02T12:13:24;9.48;;;7.85;;
75634;SDS011;64227;48.724;9.104;2023-05-02T12:15:50;8.75;;;7.65;;
75634;SDS011;64227;48.724;9.104;2023-05-02T12:18:17;9.25;;;8.25;;
75634;SDS011;64227;48.724;9.104;2023-05-02T12:20:43;9.82;;;8.13;;
75634;SDS011;64227;48.724;9.104;2023-05-02T12:23:09;10.30;;;9.02;;
75634;SDS011;64227;48.724;9.104;2023-05-02T12:25:38;7.07;;;6.13;;
75634;SDS011;64227;48.724;9.104;2023-05-02T12:28:04;7.90;;;7.10;;
75634;SDS011;64227;48.724;9.104;2023-05-02T12:30:30;7.85;;;6.95;;
75634;SDS011;64227;48.724;9.104;2023-05-02T12:32:57;8.90;;;6.10;;
75634;SDS011;64227;48.724;9.104;2023-05-02T12:35:23;8.45;;;7.13;;
75634;SDS011;64227;48.724;9.104;2023-05-02T12:37:48;14.05;;;11.50;;
75634;SDS011;64227;48.724;9.104;2023-05-02T12:40:17;10.35;;;9.00;;
75634;SDS011;64227;48.724;9.104;2023-05-02T12:42:42;13.95;;;9.75;;
75634;SDS011;64227;48.724;9.104;2023-05-02T12:45:22;13.07;;;10.07;;
75634;SDS011;64227;48.724;9.104;2023-05-02T12:47:48;9.10;;;8.20;;
75634;SDS011;64227;48.724;9.104;2023-05-02T12:50:15;7.88;;;7.07;;
75634;SDS011;64227;48.724;9.104;2023-05-02T12:52:50;8.57;;;7.65;;
75634;SDS011;64227;48.724;9.104;2023-05-02T12:55:23;10.02;;;8.07;;
75634;SDS011;64227;48.724;9.104;2023-05-02T12:57:49;13.57;;;10.55;;
75634;SDS011;64227;48.724;9.104;2023-05-02T13:00:18;12.95;;;11.40;;
75634;SDS011;64227;48.724;9.104;2023-05-02T13:02:43;15.77;;;12.73;;
75634;SDS011;64227;48.724;9.104;2023-05-02T13:05:15;15.73;;;11.25;;
75634;SDS011;64227;48.724;9.104;2023-05-02T13:07:41;15.13;;;11.88;;
75634;SDS011;64227;48.724;9.104;2023-05-02T13:10:06;14.73;;;11.45;;
75634;SDS011;64227;48.724;9.104;2023-05-02T13:12:32;10.93;;;9.25;;
75634;SDS011;64227;48.724;9.104;2023-05-02T13:17:26;12.27;;;8.27;;
75634;SDS011;64227;48.724;9.104;2023-05-02T13:19:52;10.70;;;8.68;;
75634;SDS011;64227;48.724;9.104;2023-05-02T13:22:17;10.77;;;8.65;;
75634;SDS011;64227;48.724;9.104;2023-05-02T13:24:42;8.95;;;7.70;;
75634;SDS011;64227;48.724;9.104;2023-05-02T13:27:07;10.77;;;8.45;;
75634;SDS011;64227;48.724;9.104;2023-05-02T13:29:33;12.93;;;10.23;;
75634;SDS011;64227;48.724;9.104;2023-05-02T13:31:58;11.80;;;8.60;;
75634;SDS011;64227;48.724;9.104;2023-05-02T13:34:23;12.20;;;9.90;;
75634;SDS011;64227;48.724;9.104;2023-05-02T13:36:49;15.40;;;11.07;;
75634;SDS011;64227;48.724;9.104;2023-05-02T13:39:14;14.77;;;10.25;;
75634;SDS011;64227;48.724;9.104;2023-05-02T13:41:40;12.73;;;9.07;;
75634;SDS011;64227;48.724;9.104;2023-05-02T13:44:05;10.07;;;8.15;;
75634;SDS011;64227;48.724;9.104;2023-05-02T13:46:31;13.60;;;9.68;;
75634;SDS011;64227;48.724;9.104;2023-05-02T13:49:00;12.10;;;9.07;;
75634;SDS011;64227;48.724;9.104;2023-05-02T13:51:27;13.25;;;10.57;;
75634;SDS011;64227;48.724;9.104;2023-05-02T13:53:55;14.18;;;10.73;;
75634;SDS011;64227;48.724;9.104;2023-05-02T13:56:20;12.30;;;9.65;;
75634;SDS011;64227;48.724;9.104;2023-05-02T13:58:46;11.95;;;9.18;;
75634;SDS011;64227;48.724;9.104;2023-05-02T14:01:11;11.57;;;8.43;;
75634;SDS011;64227;48.724;9.104;2023-05-02T14:03:36;10.10;;;7.70;;
75634;SDS011;64227;48.724;9.104;2023-05-02T14:06:02;8.75;;;6.10;;
75634;SDS011;64227;48.724;9.104;2023-05-02T14:08:27;8.73;;;6.85;;
75634;SDS011;64227;48.724;9.104;2023-05-02T14:10:52;10.45;;;8.65;;
75634;SDS011;64227;48.724;9.104;2023-05-02T14:13:18;9.50;;;7.60;;
75634;SDS011;64227;48.724;9.104;2023-05-02T14:15:43;10.27;;;7.85;;
75634;SDS011;64227;48.724;9.104;2023-05-02T14:18:08;9.77;;;7.13;;
75634;SDS011;64227;48.724;9.104;2023-05-02T14:20:34;6.97;;;5.35;;
75634;SDS011;64227;48.724;9.104;2023-05-02T14:22:59;7.85;;;6.22;;
75634;SDS011;64227;48.724;9.104;2023-05-02T14:25:24;7.68;;;6.38;;
75634;SDS011;64227;48.724;9.104;2023-05-02T14:27:50;8.27;;;6.18;;
75634;SDS011;64227;48.724;9.104;2023-05-02T14:30:15;9.10;;;7.13;;
75634;SDS011;64227;48.724;9.104;2023-05-02T14:32:40;8.30;;;6.20;;
75634;SDS011;64227;48.724;9.104;2023-05-02T14:35:06;8.70;;;5.82;;
75634;SDS011;64227;48.724;9.104;2023-05-02T14:37:31;10.10;;;7.78;;
75634;SDS011;64227;48.724;9.104;2023-05-02T14:39:57;9.00;;;7.25;;
75634;SDS011;64227;48.724;9.104;2023-05-02T14:42:22;6.93;;;5.57;;
75634;SDS011;64227;48.724;9.104;2023-05-02T14:44:48;6.60;;;4.97;;
75634;SDS011;64227;48.724;9.104;2023-05-02T14:47:13;7.90;;;6.95;;
75634;SDS011;64227;48.724;9.104;2023-05-02T14:49:39;6.13;;;5.28;;
75634;SDS011;64227;48.724;9.104;2023-05-02T14:52:04;9.38;;;6.00;;
75634;SDS011;64227;48.724;9.104;2023-05-02T14:54:29;5.57;;;4.88;;
75634;SDS011;64227;48.724;9.104;2023-05-02T14:56:55;10.30;;;5.85;;
75634;SDS011;64227;48.724;9.104;2023-05-02T14:59:21;7.20;;;6.03;;
75634;SDS011;64227;48.724;9.104;2023-05-02T15:01:46;8.32;;;5.72;;
75634;SDS011;64227;48.724;9.104;2023-05-02T15:04:12;7.07;;;5.75;;
75634;SDS011;64227;48.724;9.104;2023-05-02T15:06:37;6.40;;;5.55;;
75634;SDS011;64227;48.724;9.104;2023-05-02T15:09:03;8.30;;;6.13;;
75634;SDS011;64227;48.724;9.104;2023-05-02T15:11:29;13.20;;;7.50;;
75634;SDS011;64227;48.724;9.104;2023-05-02T15:13:54;11.13;;;6.90;;
75634;SDS011;64227;48.724;9.104;2023-05-02T15:16:20;8.27;;;6.00;;
75634;SDS011;64227;48.724;9.104;2023-05-02T15:18:45;8.52;;;6.00;;
75634;SDS011;64227;48.724;9.104;2023-05-02T15:21:10;7.57;;;5.45;;